Time;durP1;ratioP1;P1;durP2;ratioP2;P2;SDS_P1;SDS_P2;PMS_P1;PMS_P2;Temp;Humidity;BMP_temperature;BMP_pressure;BME280_temperature;BME280_humidity;BME280_pressure;Samples;Min_cycle;Max_cycle;Signal;HPM_P1;HPM_P2
2023/07/31 00:01:16;;;;;;;41.35;11.07;;;;;;;17.70;100.00;99870.13;4959780;28;20233;-82
2023/07/31 00:03:43;;;;;;;4.38;2.13;;;;;;;17.71;100.00;99877.22;4961416;28;20233;-81
2023/07/31 00:06:10;;;;;;;39.03;10.38;;;;;;;17.66;100.00;99878.22;4957898;28;20236;-82
2023/07/31 00:08:39;;;;;;;3.38;1.55;;;;;;;17.59;100.00;99880.22;4943270;28;20306;-81
2023/07/31 00:11:06;;;;;;;31.52;13.07;;;;;;;17.60;100.00;99877.50;4954813;28;20791;-81
2023/07/31 00:13:33;;;;;;;3.80;1.70;;;;;;;17.60;100.00;99882.84;4953879;28;20257;-81
2023/07/31 00:15:59;;;;;;;5.28;2.67;;;;;;;17.56;100.00;99889.19;4957535;28;20233;-83
2023/07/31 00:18:26;;;;;;;7.05;2.30;;;;;;;17.57;100.00;99895.41;4955369;28;20233;-81
2023/07/31 00:20:53;;;;;;;4.40;1.95;;;;;;;17.53;100.00;99896.41;4964953;28;20229;-81
2023/07/31 00:23:20;;;;;;;4.00;1.90;;;;;;;17.55;100.00;99907.94;4942247;28;20259;-83
2023/07/31 00:25:47;;;;;;;4.55;1.77;;;;;;;17.49;100.00;99905.44;4963937;28;20578;-82
2023/07/31 00:28:13;;;;;;;35.90;9.32;;;;;;;17.47;100.00;99913.50;4942101;28;20272;-81
2023/07/31 00:30:40;;;;;;;4.22;1.92;;;;;;;17.47;100.00;99913.50;4962610;28;20229;-82
2023/07/31 00:33:08;;;;;;;46.08;14.45;;;;;;;17.41;100.00;99915.47;4959426;28;20623;-83
2023/07/31 00:35:35;;;;;;;5.43;2.20;;;;;;;17.40;100.00;99921.72;4962269;28;20239;-81
2023/07/31 00:38:03;;;;;;;39.70;9.10;;;;;;;17.36;100.00;99926.28;4952594;28;20237;-81
2023/07/31 00:40:35;;;;;;;4.00;1.88;;;;;;;17.40;100.00;99929.75;4961074;28;20236;-84
2023/07/31 00:43:03;;;;;;;21.52;6.25;;;;;;;17.28;100.00;99933.63;4957159;28;20283;-84
2023/07/31 00:45:30;;;;;;;3.95;1.77;;;;;;;17.38;100.00;99945.84;4962902;28;20233;-80
2023/07/31 00:47:57;;;;;;;4.32;1.80;;;;;;;17.38;100.00;99943.16;4958330;28;20272;-82
2023/07/31 00:50:25;;;;;;;6.15;2.53;;;;;;;17.26;100.00;99941.69;4942328;28;20243;-80
2023/07/31 00:52:51;;;;;;;3.88;1.67;;;;;;;17.33;100.00;99945.06;4963159;28;20719;-81
2023/07/31 00:55:18;;;;;;;13.48;3.67;;;;;;;17.23;100.00;99936.41;4925072;28;20245;-81
2023/07/31 00:57:45;;;;;;;4.13;1.80;;;;;;;17.24;100.00;99942.63;4925908;28;20748;-82
2023/07/31 01:00:12;;;;;;;23.73;5.93;;;;;;;17.28;100.00;99955.88;4959797;28;20237;-81
2023/07/31 01:02:39;;;;;;;5.40;2.30;;;;;;;17.18;100.00;99949.03;4931384;28;20313;-82
2023/07/31 01:05:06;;;;;;;21.40;5.88;;;;;;;17.14;100.00;99950.03;4935372;28;20233;-83
2023/07/31 01:07:45;;;;;;;5.68;2.38;;;;;;;17.12;100.00;99950.97;4955347;28;20648;-81
2023/07/31 01:10:23;;;;;;;54.70;14.30;;;;;;;17.09;100.00;99954.59;4934810;28;20304;-80
2023/07/31 01:12:51;;;;;;;6.75;2.78;;;;;;;17.08;100.00;99954.63;4960222;28;20668;-82
2023/07/31 01:15:18;;;;;;;15.60;5.38;;;;;;;17.04;100.00;99959.19;4937193;28;21252;-81
2023/07/31 01:17:45;;;;;;;4.60;2.13;;;;;;;17.03;100.00;99964.56;4939333;28;20275;-82
2023/07/31 01:20:15;;;;;;;35.92;9.45;;;;;;;17.14;100.00;99973.19;4942235;28;20232;-81
2023/07/31 01:22:54;;;;;;;4.88;2.15;;;;;;;17.08;100.00;99962.66;4940415;28;20316;-83
2023/07/31 01:25:29;;;;;;;6.57;2.40;;;;;;;17.03;100.00;99981.47;4958406;28;20606;-81
2023/07/31 01:28:03;;;;;;;6.20;2.40;;;;;;;17.09;100.00;99973.31;4960136;28;20220;-81
2023/07/31 01:30:35;;;;;;;4.00;1.60;;;;;;;17.03;100.00;99978.78;4959158;28;20824;-81
2023/07/31 01:33:07;;;;;;;14.50;4.32;;;;;;;17.02;100.00;99977.03;4938830;28;20236;-85
2023/07/31 01:35:35;;;;;;;5.22;2.30;;;;;;;16.95;100.00;99978.97;4944096;28;20241;-81
2023/07/31 01:38:02;;;;;;;23.33;5.32;;;;;;;17.02;100.00;99990.41;4926312;28;20297;-85
2023/07/31 01:40:29;;;;;;;4.63;1.90;;;;;;;16.98;100.00;99991.38;4951262;28;20237;-81
2023/07/31 01:42:56;;;;;;;6.97;2.97;;;;;;;16.95;100.00;99989.66;4949103;28;20220;-82
2023/07/31 01:45:23;;;;;;;4.82;2.20;;;;;;;17.00;100.00;99994.03;4948925;28;20244;-81
2023/07/31 01:47:50;;;;;;;3.47;1.63;;;;;;;17.09;100.00;99993.78;4962688;28;20300;-83
2023/07/31 01:50:18;;;;;;;38.55;8.05;;;;;;;17.02;100.00;99990.41;4956104;28;20289;-84
2023/07/31 01:52:44;;;;;;;3.92;1.60;;;;;;;17.00;100.00;100000.25;4962880;28;20279;-81
2023/07/31 01:55:11;;;;;;;32.00;8.38;;;;;;;16.98;100.00;99991.38;4929717;28;20328;-81
2023/07/31 01:57:38;;;;;;;4.03;1.67;;;;;;;16.94;100.00;99995.94;4959677;28;20235;-81
2023/07/31 02:00:06;;;;;;;19.25;4.97;;;;;;;16.93;100.00;99991.50;4959597;28;20228;-80
2023/07/31 02:02:33;;;;;;;4.57;1.88;;;;;;;17.03;100.00;100005.50;4963511;28;20225;-81
2023/07/31 02:05:00;;;;;;;3.05;1.40;;;;;;;16.97;100.00;99996.78;4961204;28;20233;-83
2023/07/31 02:07:26;;;;;;;4.65;1.80;;;;;;;16.99;100.00;99992.25;4964839;28;20250;-81
2023/07/31 02:09:53;;;;;;;3.75;1.65;;;;;;;16.92;100.00;99997.75;4965829;28;20231;-81
2023/07/31 02:12:20;;;;;;;5.53;2.17;;;;;;;16.92;100.00;99989.75;4963467;28;20572;-84
2023/07/31 02:14:47;;;;;;;5.15;2.25;;;;;;;16.96;100.00;99977.19;4954588;28;20237;-81
2023/07/31 02:17:14;;;;;;;50.38;16.58;;;;;;;16.92;100.00;99981.72;4958410;28;20255;-81
2023/07/31 02:19:41;;;;;;;3.65;1.67;;;;;;;16.95;100.00;99976.31;4962764;28;20233;-81
2023/07/31 02:22:07;;;;;;;46.47;12.98;;;;;;;16.86;100.00;99980.97;4939855;28;20229;-81
2023/07/31 02:24:34;;;;;;;4.38;1.90;;;;;;;16.92;100.00;99981.72;4962457;28;20312;-83
2023/07/31 02:27:01;;;;;;;11.45;3.75;;;;;;;16.96;100.00;99982.53;4937402;28;20617;-81
2023/07/31 02:29:28;;;;;;;3.63;1.60;;;;;;;16.95;100.00;99981.66;4963951;28;20316;-81
2023/07/31 02:31:55;;;;;;;4.13;1.90;;;;;;;16.98;100.00;99975.38;4951618;28;20247;-81
2023/07/31 02:34:22;;;;;;;5.45;2.40;;;;;;;16.97;100.00;99976.28;4936334;28;20240;-81
2023/07/31 02:36:49;;;;;;;5.05;2.00;;;;;;;17.03;100.00;99978.78;4962692;28;20260;-81
2023/07/31 02:39:15;;;;;;;74.20;19.00;;;;;;;16.98;100.00;99977.16;4905603;28;20329;-84
2023/07/31 02:41:42;;;;;;;5.07;2.28;;;;;;;16.93;100.00;99971.91;4911022;28;20321;-81
2023/07/31 02:44:10;;;;;;;39.05;11.85;;;;;;;16.96;100.00;99969.19;4956073;28;20228;-82
2023/07/31 02:46:37;;;;;;;4.65;2.05;;;;;;;16.91;100.00;99973.75;4959581;28;20259;-82
2023/07/31 02:49:04;;;;;;;37.55;10.75;;;;;;;16.93;100.00;99969.25;4960795;28;20239;-82
2023/07/31 02:51:31;;;;;;;3.85;1.80;;;;;;;16.95;100.00;99978.97;4961191;28;20235;-81
2023/07/31 02:53:57;;;;;;;3.83;1.73;;;;;;;16.88;100.00;99982.69;4960806;28;20225;-83
2023/07/31 02:56:24;;;;;;;4.65;1.90;;;;;;;16.95;100.00;99973.66;4953720;28;20241;-81
2023/07/31 02:58:51;;;;;;;4.38;1.92;;;;;;;16.89;100.00;99983.56;4942606;28;20225;-82
2023/07/31 03:01:18;;;;;;;14.25;4.93;;;;;;;16.86;100.00;99992.53;4950347;28;20240;-80
2023/07/31 03:03:45;;;;;;;8.50;3.22;;;;;;;16.89;100.00;99989.78;4955743;28;20241;-84
2023/07/31 03:06:12;;;;;;;37.08;8.60;;;;;;;16.86;100.00;99981.84;4947823;28;20249;-81
2023/07/31 03:08:38;;;;;;;4.85;2.22;;;;;;;16.86;100.00;99980.97;4953397;28;20588;-82
2023/07/31 03:11:05;;;;;;;28.13;8.15;;;;;;;16.87;100.00;99988.94;4932852;28;20711;-82
2023/07/31 03:13:32;;;;;;;4.32;1.80;;;;;;;16.83;100.00;99981.91;4915367;28;20245;-80
2023/07/31 03:15:59;;;;;;;4.20;1.73;;;;;;;16.87;100.00;99990.72;4844096;29;20264;-85
2023/07/31 03:18:26;;;;;;;6.40;2.67;;;;;;;16.85;100.00;99985.44;4934623;28;20236;-80
2023/07/31 03:20:52;;;;;;;4.05;1.73;;;;;;;16.84;100.00;99989.00;4958500;28;20550;-81
2023/07/31 03:23:19;;;;;;;13.20;4.82;;;;;;;16.80;100.00;99982.00;4934558;28;20240;-83
2023/07/31 03:25:59;;;;;;;4.28;1.88;;;;;;;16.77;100.00;99989.19;4955754;28;20248;-81
2023/07/31 03:28:26;;;;;;;4.32;1.92;;;;;;;16.68;100.00;99984.94;4953971;28;20243;-81
2023/07/31 03:30:55;;;;;;;4.88;2.08;;;;;;;16.70;100.00;99985.78;4960298;28;20244;-83
2023/07/31 03:33:22;;;;;;;3.88;1.77;;;;;;;16.71;100.00;99992.00;4948508;28;20279;-81
2023/07/31 03:35:50;;;;;;;4.72;2.00;;;;;;;16.73;100.00;99995.53;4961873;28;20233;-82
2023/07/31 03:38:19;;;;;;;5.18;2.20;;;;;;;16.70;100.00;99991.13;4947308;28;20268;-80
2023/07/31 03:40:47;;;;;;;6.20;2.63;;;;;;;16.67;100.00;100001.88;4950853;28;20232;-81
2023/07/31 03:43:15;;;;;;;53.85;18.48;;;;;;;16.69;100.00;100004.50;4950370;28;20232;-82
2023/07/31 03:45:42;;;;;;;3.53;1.83;;;;;;;16.74;100.00;100008.84;4944851;28;20233;-81
2023/07/31 03:48:09;;;;;;;38.88;11.02;;;;;;;16.70;100.00;100007.16;4954196;28;20229;-82
2023/07/31 03:50:35;;;;;;;5.63;2.33;;;;;;;16.70;100.00;100020.50;4962889;28;20228;-81
2023/07/31 03:53:02;;;;;;;19.58;5.47;;;;;;;16.68;100.00;100008.09;4954762;28;20229;-85
2023/07/31 03:55:29;;;;;;;7.35;3.20;;;;;;;16.63;100.00;100011.72;4950374;28;20329;-81
2023/07/31 03:57:56;;;;;;;3.58;1.50;;;;;;;16.63;100.00;100009.03;4940694;28;20236;-81
2023/07/31 04:00:23;;;;;;;5.13;2.25;;;;;;;16.60;100.00;100019.78;4941524;28;20727;-81
2023/07/31 04:02:49;;;;;;;5.00;2.28;;;;;;;16.61;100.00;100034.91;4966626;28;20237;-81
2023/07/31 04:05:16;;;;;;;25.90;6.90;;;;;;;16.57;100.00;100025.19;4958480;28;20319;-81
2023/07/31 04:07:43;;;;;;;5.55;2.30;;;;;;;16.53;100.00;100035.97;4961119;28;20229;-81
2023/07/31 04:10:10;;;;;;;37.75;8.88;;;;;;;16.55;100.00;100029.69;4958198;28;20247;-81
2023/07/31 04:12:39;;;;;;;4.07;1.70;;;;;;;16.56;100.00;100039.47;4960660;28;20234;-81
2023/07/31 04:15:06;;;;;;;36.70;8.55;;;;;;;16.57;100.00;100035.88;4958238;28;20324;-81
2023/07/31 04:17:33;;;;;;;5.22;2.40;;;;;;;16.51;100.00;100043.13;4963116;28;20232;-81
2023/07/31 04:20:00;;;;;;;3.67;1.60;;;;;;;16.51;100.00;100044.00;4958538;28;20240;-82
2023/07/31 04:22:27;;;;;;;4.43;1.88;;;;;;;16.51;100.00;100052.03;4964126;28;20301;-81
2023/07/31 04:24:54;;;;;;;4.30;1.80;;;;;;;16.52;100.00;100044.91;4962294;28;20260;-81
2023/07/31 04:27:20;;;;;;;7.82;2.83;;;;;;;16.49;100.00;100042.28;4957738;28;20321;-82
2023/07/31 04:29:47;;;;;;;4.03;1.77;;;;;;;16.53;100.00;100050.19;4969228;28;20315;-80
2023/07/31 04:32:16;;;;;;;34.13;8.93;;;;;;;16.59;100.00;100050.06;4956483;28;20225;-80
2023/07/31 04:34:43;;;;;;;6.72;2.28;;;;;;;16.62;100.00;100049.13;4966074;28;20225;-82
2023/07/31 04:37:10;;;;;;;27.25;7.70;;;;;;;16.63;100.00;100056.22;4943879;28;20228;-81
2023/07/31 04:39:37;;;;;;;6.78;2.35;;;;;;;16.61;100.00;100048.25;4962665;28;20225;-83
2023/07/31 04:42:04;;;;;;;29.40;6.47;;;;;;;16.60;100.00;100056.28;4963383;28;20233;-81
2023/07/31 04:44:31;;;;;;;5.07;2.05;;;;;;;16.63;100.00;100050.88;4966447;28;20233;-82
2023/07/31 04:46:57;;;;;;;3.63;1.60;;;;;;;16.62;100.00;100049.13;4965592;28;20240;-81
2023/07/31 04:49:24;;;;;;;6.38;2.85;;;;;;;16.60;100.00;100048.28;4958175;28;20268;-80
2023/07/31 04:51:51;;;;;;;5.47;2.42;;;;;;;16.61;100.00;100053.59;4963165;28;20742;-80
2023/07/31 04:54:18;;;;;;;39.20;8.75;;;;;;;16.63;100.00;100056.22;4956995;28;20633;-81
2023/07/31 04:56:44;;;;;;;4.05;1.70;;;;;;;16.65;100.00;100051.75;4966165;28;20232;-80
2023/07/31 04:59:11;;;;;;;33.40;8.38;;;;;;;16.68;100.00;100056.16;4943173;28;20721;-83
2023/07/31 05:01:38;;;;;;;5.03;2.33;;;;;;;16.66;100.00;100057.97;4967103;28;20233;-81
2023/07/31 05:04:05;;;;;;;36.08;10.10;;;;;;;16.69;100.00;100053.44;4960027;28;20229;-80
2023/07/31 05:06:32;;;;;;;4.28;1.83;;;;;;;16.66;100.00;100066.88;4965024;28;20272;-82
2023/07/31 05:08:58;;;;;;;6.32;2.60;;;;;;;16.68;100.00;100059.69;4959893;28;20225;-92
2023/07/31 05:11:25;;;;;;;5.45;2.22;;;;;;;16.70;100.00;100057.00;4955705;28;20716;-80
2023/07/31 05:13:52;;;;;;;4.07;1.75;;;;;;;16.77;100.00;100070.19;4934479;28;20232;-79
2023/07/31 05:16:19;;;;;;;7.43;2.67;;;;;;;16.82;100.00;100070.09;4949023;28;20250;-79
2023/07/31 05:18:46;;;;;;;4.05;1.80;;;;;;;16.90;100.00;100063.69;4959440;28;20243;-80
2023/07/31 05:21:13;;;;;;;37.47;8.52;;;;;;;16.99;100.00;100070.59;4954326;28;20221;-79
2023/07/31 05:23:40;;;;;;;4.00;1.75;;;;;;;17.10;100.00;100071.25;4962600;28;20233;-81
2023/07/31 05:26:07;;;;;;;22.80;5.35;;;;;;;17.20;100.00;100078.13;4957139;28;20610;-80
2023/07/31 05:28:34;;;;;;;4.38;2.00;;;;;;;17.23;100.00;100070.03;4962843;28;20233;-79
2023/07/31 05:31:05;;;;;;;9.40;3.13;;;;;;;17.34;100.00;100068.91;4956383;28;20229;-80
2023/07/31 05:33:32;;;;;;;3.58;1.50;;;;;;;17.43;100.00;100057.97;4957253;28;20672;-80
2023/07/31 05:35:59;;;;;;;4.38;2.58;;;;;;;17.45;100.00;100043.66;4947201;28;20342;-81
2023/07/31 05:38:26;;;;;;;5.03;2.03;;;;;;;17.58;100.00;100050.44;4953051;28;20237;-80
2023/07/31 05:40:53;;;;;;;3.17;1.55;;;;;;;17.67;100.00;100065.41;4945164;28;20670;-80
2023/07/31 05:43:19;;;;;;;8.55;3.00;;;;;;;17.72;100.00;100047.44;4950423;28;20255;-80
2023/07/31 05:45:47;;;;;;;3.42;1.52;;;;;;;17.74;100.00;100047.41;4960574;28;20245;-80
2023/07/31 05:48:14;;;;;;;47.17;13.88;;;;;;;17.79;100.00;100049.03;4957869;28;20229;-83
2023/07/31 05:50:43;;;;;;;4.80;2.05;;;;;;;17.81;100.00;100038.31;4960376;28;20225;-81
2023/07/31 05:53:10;;;;;;;39.22;12.00;;;;;;;17.82;100.00;100043.59;4942747;28;20233;-82
2023/07/31 05:55:37;;;;;;;4.05;1.77;;;;;;;17.82;100.00;100040.94;4964686;28;20229;-81
2023/07/31 05:58:04;;;;;;;37.38;9.65;;;;;;;17.85;100.00;100040.84;4960650;28;20293;-81
2023/07/31 06:00:31;;;;;;;3.92;1.70;;;;;;;17.86;100.00;100031.91;4964527;28;20229;-82
2023/07/31 06:02:57;;;;;;;3.88;1.70;;;;;;;17.88;100.00;100029.19;4946018;28;20229;-82
2023/07/31 06:05:26;;;;;;;4.20;1.80;;;;;;;17.90;100.00;100025.56;4955918;28;20237;-82
2023/07/31 06:07:52;;;;;;;3.85;1.70;;;;;;;17.87;100.00;100028.31;4961275;28;20220;-82
2023/07/31 06:10:19;;;;;;;3.50;1.60;;;;;;;17.95;100.00;100032.56;4958160;28;20291;-81
2023/07/31 06:12:46;;;;;;;4.95;1.98;;;;;;;17.96;100.00;100037.88;4963900;28;20227;-81
2023/07/31 06:15:13;;;;;;;33.92;8.75;;;;;;;17.97;100.00;100055.69;4957192;28;20235;-82
2023/07/31 06:17:40;;;;;;;3.05;1.45;;;;;;;17.95;100.00;100049.50;4947077;28;20228;-82
2023/07/31 06:20:07;;;;;;;38.80;10.82;;;;;;;17.87;100.00;100032.78;4961420;28;20221;-84
2023/07/31 06:22:34;;;;;;;4.50;2.00;;;;;;;18.03;100.00;100038.59;4966468;28;20229;-81
2023/07/31 06:25:01;;;;;;;7.70;2.72;;;;;;;18.05;100.00;100031.41;4959957;28;20257;-81
2023/07/31 06:27:28;;;;;;;3.50;1.60;;;;;;;18.03;100.00;100023.41;4964770;28;20288;-81
2023/07/31 06:29:55;;;;;;;4.30;1.80;;;;;;;18.03;100.00;100011.84;4965493;28;20637;-82
2023/07/31 06:32:22;;;;;;;7.65;2.63;;;;;;;18.15;100.00;100017.72;4961777;28;20264;-82
2023/07/31 06:34:48;;;;;;;3.45;1.60;;;;;;;18.19;100.00;100013.16;4946649;28;20225;-81
2023/07/31 06:37:16;;;;;;;34.22;8.20;;;;;;;18.15;100.00;100004.34;4961105;28;20225;-80
2023/07/31 06:39:43;;;;;;;2.50;1.40;;;;;;;18.09;100.00;100000.97;4961986;28;20228;-81
2023/07/31 06:42:10;;;;;;;34.67;8.68;;;;;;;18.12;100.00;100004.44;4957393;28;20240;-82
2023/07/31 06:44:37;;;;;;;3.22;1.58;;;;;;;18.04;100.00;100005.56;4962736;28;20728;-81
2023/07/31 06:47:04;;;;;;;28.42;7.32;;;;;;;17.98;100.00;99993.25;4958421;28;20233;-82
2023/07/31 06:49:31;;;;;;;3.92;1.70;;;;;;;18.02;100.00;100010.09;4962786;28;20233;-81
2023/07/31 06:51:57;;;;;;;4.03;1.80;;;;;;;18.02;100.00;100012.75;4963891;28;20308;-82
2023/07/31 06:54:24;;;;;;;5.00;2.63;;;;;;;18.02;100.00;100018.97;4960973;28;20237;-82
2023/07/31 06:56:51;;;;;;;4.38;1.70;;;;;;;18.12;100.00;100017.81;4947489;28;20237;-81
2023/07/31 06:59:18;;;;;;;38.10;7.85;;;;;;;18.20;100.00;100023.84;4959659;28;20233;-82
2023/07/31 07:01:45;;;;;;;3.67;1.67;;;;;;;18.22;100.00;100023.81;4961565;28;20229;-82
2023/07/31 07:04:11;;;;;;;21.20;6.53;;;;;;;18.43;100.00;100039.25;4954577;28;20239;-84
2023/07/31 07:06:38;;;;;;;4.60;2.05;;;;;;;18.76;100.00;100053.47;4931183;28;20312;-83
2023/07/31 07:09:05;;;;;;;23.45;6.70;;;;;;;19.11;100.00;100059.53;4918431;28;20316;-84
2023/07/31 07:11:32;;;;;;;4.78;1.90;;;;;;;19.25;100.00;100041.19;4963297;28;20257;-82
2023/07/31 07:14:00;;;;;;;4.82;2.17;;;;;;;19.40;100.00;100035.31;4941147;28;20327;-87
2023/07/31 07:16:28;;;;;;;3.85;1.75;;;;;;;19.39;100.00;100011.25;4958703;28;20239;-86
2023/07/31 07:18:55;;;;;;;3.38;1.50;;;;;;;19.25;100.00;99984.00;4962800;28;20272;-82
2023/07/31 07:21:30;;;;;;;5.32;2.35;;;;;;;19.34;100.00;99981.91;4938686;28;20248;-81
2023/07/31 07:23:57;;;;;;;4.65;2.00;;;;;;;19.48;100.00;99979.63;4947654;28;20283;-82
2023/07/31 07:26:24;;;;;;;4.65;2.05;;;;;;;19.69;100.00;99979.84;4955736;28;20261;-82
2023/07/31 07:28:51;;;;;;;3.05;1.50;;;;;;;20.07;100.00;99997.25;4958319;28;20233;-81
2023/07/31 07:31:17;;;;;;;40.83;9.10;;;;;;;20.12;100.00;99952.31;4944076;28;20264;-83
2023/07/31 07:33:44;;;;;;;4.25;1.90;;;;;;;20.53;100.00;99966.88;4922459;28;20232;-83
2023/07/31 07:36:13;;;;;;;23.60;6.40;;;;;;;20.59;100.00;99934.41;4888790;28;20239;-82
2023/07/31 07:38:40;;;;;;;3.85;1.95;;;;;;;20.46;100.00;99917.03;4837730;28;20701;-83
2023/07/31 07:41:07;;;;;;;35.67;8.25;;;;;;;20.41;100.00;99909.16;4912089;28;20228;-83
2023/07/31 07:43:34;;;;;;;4.22;1.63;;;;;;;20.30;100.00;99886.31;4947479;28;20236;-83
2023/07/31 07:46:01;;;;;;;6.95;2.33;;;;;;;20.47;100.00;99889.22;4941413;28;20237;-84
2023/07/31 07:48:29;;;;;;;4.22;1.98;;;;;;;20.53;100.00;99902.41;4946910;28;20237;-84
2023/07/31 07:50:55;;;;;;;7.63;3.08;;;;;;;20.71;100.00;99906.16;4944407;28;20318;-83
2023/07/31 07:53:22;;;;;;;5.47;2.17;;;;;;;20.81;100.00;99898.63;4918987;28;20319;-83
2023/07/31 07:55:49;;;;;;;5.90;2.55;;;;;;;20.94;100.00;99898.06;4950208;28;20626;-87
2023/07/31 07:58:16;;;;;;;33.80;9.00;;;;;;;21.00;100.00;99894.25;4932390;28;20233;-85
2023/07/31 08:00:48;;;;;;;3.67;1.63;;;;;;;21.00;100.00;99913.94;4948774;28;20224;-87
2023/07/31 08:03:16;;;;;;;37.15;8.80;;;;;;;20.94;100.00;99864.94;4942842;28;20239;-83
2023/07/31 08:05:44;;;;;;;4.25;1.80;;;;;;;21.07;100.00;99853.59;4932438;28;20237;-83
2023/07/31 08:08:17;;;;;;;30.15;9.20;;;;;;;21.16;100.00;99825.41;4939226;28;20296;-86
2023/07/31 08:10:44;;;;;;;4.63;1.90;;;;;;;21.35;100.00;99818.31;4958577;28;20230;-83
2023/07/31 08:13:11;;;;;;;31.42;7.40;;;;;;;21.52;100.00;99800.53;4943317;28;20319;-85
2023/07/31 08:15:41;;;;;;;5.70;2.45;;;;;;;21.64;100.00;99782.00;4951916;28;20618;-84
2023/07/31 08:18:09;;;;;;;37.03;9.75;;;;;;;21.59;100.00;99735.59;4931263;28;20232;-86
2023/07/31 08:20:36;;;;;;;3.15;1.50;;;;;;;21.78;100.00;99764.34;4951702;28;20232;-83
2023/07/31 08:23:03;;;;;;;13.77;3.60;;;;;;;21.56;100.00;99695.41;4952832;28;20323;-84
2023/07/31 08:25:30;;;;;;;2.78;1.52;;;;;;;21.45;100.00;99668.13;4944421;28;20228;-83
2023/07/31 08:27:57;;;;;;;4.40;1.83;;;;;;;21.44;100.00;99663.69;4952834;28;20229;-83
2023/07/31 08:30:23;;;;;;;3.55;1.58;;;;;;;21.36;100.00;99656.00;4953341;28;20272;-83
2023/07/31 08:32:50;;;;;;;4.05;1.70;;;;;;;21.50;100.00;99657.16;4962393;28;20224;-84
2023/07/31 08:35:17;;;;;;;33.47;7.93;;;;;;;21.65;100.00;99661.78;4951411;28;20239;-86
2023/07/31 08:37:45;;;;;;;4.03;1.80;;;;;;;21.73;100.00;99662.28;4943316;28;20244;-83
2023/07/31 08:40:13;;;;;;;37.72;10.63;;;;;;;21.83;100.00;99641.19;4923691;28;20233;-82
2023/07/31 08:42:45;;;;;;;6.07;2.38;;;;;;;21.63;100.00;99594.59;4945170;28;20252;-83
2023/07/31 08:45:15;;;;;;;45.72;11.05;;;;;;;21.64;100.00;99582.91;4948455;28;20271;-86
2023/07/31 08:47:47;;;;;;;3.63;1.55;;;;;;;21.74;100.00;99572.53;4945475;28;20271;-85
2023/07/31 08:50:16;;;;;;;49.55;13.57;;;;;;;22.00;100.00;99596.31;4948553;28;20248;-84
2023/07/31 08:52:43;;;;;;;2.70;1.20;;;;;;;22.74;100.00;99662.59;4940682;28;20686;-86
2023/07/31 08:55:10;;;;;;;37.13;9.85;;;;;;;22.48;100.00;99561.56;4951807;28;20234;-84
2023/07/31 08:57:38;;;;;;;4.28;1.88;;;;;;;22.64;100.00;99578.66;4945042;28;20229;-84
2023/07/31 09:00:07;;;;;;;25.27;7.20;;;;;;;22.59;100.00;99561.88;4959942;28;20232;-83
2023/07/31 09:02:49;;;;;;;4.57;2.22;;;;;;;22.62;100.00;99537.44;4958098;28;20224;-84
2023/07/31 09:05:17;;;;;;;39.58;9.95;;;;;;;22.93;100.00;99556.41;4940390;28;20240;-83
2023/07/31 09:07:47;;;;;;;5.03;2.15;;;;;;;22.86;100.00;99528.03;4938442;28;20236;-83
2023/07/31 09:10:13;;;;;;;39.30;11.15;;;;;;;22.64;100.00;99465.47;4956766;28;20324;-84
2023/07/31 09:12:40;;;;;;;3.47;1.50;;;;;;;22.49;100.00;99410.63;4963425;28;20307;-85
2023/07/31 09:15:08;;;;;;;38.08;10.23;;;;;;;22.75;100.00;99452.25;4955653;28;20271;-83
2023/07/31 09:17:46;;;;;;;4.45;1.85;;;;;;;22.80;100.00;99476.28;4961871;28;20278;-86
2023/07/31 09:20:17;;;;;;;29.27;7.65;;;;;;;22.78;100.00;99448.53;4941166;28;20327;-83
2023/07/31 09:22:45;;;;;;;4.90;2.03;;;;;;;22.84;100.00;99423.94;4957381;28;20236;-83
2023/07/31 09:25:19;;;;;;;41.25;11.20;;;;;;;23.14;100.00;99437.47;4954256;28;20243;-83
2023/07/31 09:27:49;;;;;;;2.88;1.50;;;;;;;23.27;100.00;99408.81;4958436;28;20307;-83
2023/07/31 09:30:20;;;;;;;38.42;9.60;;;;;;;23.87;100.00;99463.72;4955435;28;20237;-84
2023/07/31 09:32:48;;;;;;;5.20;2.35;;;;;;;23.51;100.00;99393.03;4961447;28;20778;-85
2023/07/31 09:35:28;;;;;;;29.45;8.25;;;;;;;23.07;100.00;99323.72;4877555;28;20279;-85
2023/07/31 09:38:00;;;;;;;3.55;1.67;;;;;;;23.17;100.00;99341.06;4922397;28;20258;-86
2023/07/31 09:40:27;;;;;;;5.85;2.70;;;;;;;23.28;100.00;99349.38;4950533;28;20236;-85
2023/07/31 09:42:57;;;;;;;3.67;1.60;;;;;;;23.19;100.00;99328.38;4964272;28;20228;-83
2023/07/31 09:45:23;;;;;;;5.82;2.60;;;;;;;;;;4954781;28;20256;-83
2023/07/31 09:48:02;;;;;;;9.98;2.92;;;;;;;23.14;100.00;99316.13;4956377;28;20240;-84
2023/07/31 09:50:30;;;;;;;3.47;1.50;;;;;;;23.25;100.00;99316.34;4967355;28;20310;-83
2023/07/31 09:52:57;;;;;;;5.18;2.20;;;;;;;23.41;100.00;99300.97;4959450;28;20283;-85
2023/07/31 09:55:24;;;;;;;3.90;1.60;;;;;;;23.43;100.00;99315.25;4956843;28;20240;-84
2023/07/31 09:57:51;;;;;;;3.42;1.60;;;;;;;23.55;100.00;99321.75;4961539;28;20315;-82
2023/07/31 10:00:22;;;;;;;23.85;5.85;;;;;;;23.44;100.00;99252.22;4938437;28;20228;-84
2023/07/31 10:02:50;;;;;;;2.70;1.38;;;;;;;23.52;100.00;99263.41;4958832;28;20670;-85
2023/07/31 10:05:19;;;;;;;34.17;8.68;;;;;;;23.56;100.00;99248.78;4955175;28;20236;-84
2023/07/31 10:07:53;;;;;;;4.47;2.03;;;;;;;23.39;100.00;99194.09;4940445;28;20237;-84
2023/07/31 10:10:22;;;;;;;7.28;3.05;;;;;;;23.33;100.00;99159.41;4953859;28;20386;-82
2023/07/31 10:12:50;;;;;;;4.07;1.80;;;;;;;23.43;100.00;99166.84;4959872;28;20285;-84
2023/07/31 10:15:17;;;;;;;39.20;11.02;;;;;;;23.77;100.00;99199.81;4952584;28;20239;-84
2023/07/31 10:17:47;;;;;;;5.15;2.33;;;;;;;24.51;100.00;99237.22;4956901;28;20279;-83
2023/07/31 10:20:16;;;;;;;40.13;10.38;;;;;;;24.09;100.00;99127.47;4952595;28;20224;-81
2023/07/31 10:22:45;;;;;;;3.53;1.60;;;;;;;24.45;100.00;99156.56;4940223;28;20232;-82
2023/07/31 10:25:12;;;;;;;39.92;11.38;;;;;;;25.26;100.00;99224.00;4952540;28;20240;-84
2023/07/31 10:27:40;;;;;;;3.92;1.70;;;;;;;25.26;100.00;99119.34;4939320;28;20299;-83
2023/07/31 10:30:12;;;;;;;37.13;9.55;;;;;;;25.25;100.00;99033.75;4950807;28;20344;-82
2023/07/31 10:32:44;;;;;;;5.18;1.98;;;;;;;24.88;100.00;98974.19;4955794;28;20228;-81
2023/07/31 10:35:11;;;;;;;21.00;5.70;;;;;;;24.22;100.00;98928.50;4949695;28;20343;-80
2023/07/31 10:37:40;;;;;;;4.18;1.90;;;;;;;24.06;100.00;98912.50;4957970;28;20238;-81
2023/07/31 10:40:11;;;;;;;28.23;7.03;;;;;;;23.89;100.00;98875.91;4954009;28;20251;-82
2023/07/31 10:42:52;;;;;;;4.05;1.75;;;;;;;23.68;100.00;98898.13;4955914;28;20229;-79
2023/07/31 10:45:36;;;;;;;11.27;3.15;;;;;;;23.70;100.00;98910.53;4948779;28;20429;-78
2023/07/31 10:48:05;;;;;;;17.20;4.93;;;;;;;23.62;100.00;98907.50;4932402;28;20761;-83
2023/07/31 10:50:37;;;;;;;3.55;1.52;;;;;;;23.49;100.00;98890.41;4956347;28;20225;-81
2023/07/31 10:53:04;;;;;;;13.13;4.03;;;;;;;23.57;100.00;98897.03;4950840;28;20224;-81
2023/07/31 10:55:31;;;;;;;3.78;1.60;;;;;;;23.72;100.00;98911.28;4933417;28;20244;-80
2023/07/31 10:58:07;;;;;;;3.83;1.58;;;;;;;23.54;100.00;98827.09;4951405;28;20256;-81
2023/07/31 11:00:34;;;;;;;3.30;1.45;;;;;;;23.50;100.00;98819.28;4949786;28;20246;-81
2023/07/31 11:03:06;;;;;;;3.00;1.42;;;;;;;23.64;100.00;98827.31;4931921;28;20237;-82
2023/07/31 11:05:47;;;;;;;4.28;1.92;;;;;;;23.74;100.00;98868.00;4957739;28;20232;-82
2023/07/31 11:08:24;;;;;;;28.98;7.60;;;;;;;23.59;100.00;98848.34;4951942;28;20260;-80
2023/07/31 11:11:13;;;;;;;4.35;2.38;;;;;;;23.44;100.00;98830.50;4962048;28;20289;-84
2023/07/31 11:13:40;;;;;;;4.45;1.92;;;;;;;23.50;100.00;98843.56;4955095;28;20280;-84
2023/07/31 11:16:08;;;;;;;9.85;4.03;;;;;;;23.49;100.00;98818.41;4952303;28;20238;-84
2023/07/31 11:18:36;;;;;;;4.32;1.75;;;;;;;23.31;100.00;98800.78;4963549;28;20312;-84
2023/07/31 11:21:03;;;;;;;8.07;2.63;;;;;;;23.45;100.00;98821.44;4935717;28;20247;-84
2023/07/31 11:23:30;;;;;;;3.35;1.55;;;;;;;23.55;100.00;98858.50;4957802;28;20403;-85